sensor_id;sensor_type;location;lat;lon;timestamp;P1;durP1;ratioP1;P2;durP2;ratioP2
81351;SDS011;70809;52.184;13.422;2023-12-20T00:00:52;5.05;;;3.10;;
81351;SDS011;70809;52.184;13.422;2023-12-20T00:01:54;5.15;;;3.08;;
81351;SDS011;70809;52.184;13.422;2023-12-20T00:02:56;6.03;;;3.17;;
81351;SDS011;70809;52.184;13.422;2023-12-20T00:03:57;5.53;;;3.10;;
81351;SDS011;70809;52.184;13.422;2023-12-20T00:04:59;6.78;;;3.78;;
81351;SDS011;70809;52.184;13.422;2023-12-20T00:06:00;5.95;;;3.60;;
81351;SDS011;70809;52.184;13.422;2023-12-20T00:07:02;5.85;;;3.40;;
81351;SDS011;70809;52.184;13.422;2023-12-20T00:08:04;5.78;;;3.33;;
81351;SDS011;70809;52.184;13.422;2023-12-20T00:09:06;4.47;;;3.03;;
81351;SDS011;70809;52.184;13.422;2023-12-20T00:10:09;5.30;;;3.08;;
81351;SDS011;70809;52.184;13.422;2023-12-20T00:11:11;7.22;;;3.13;;
81351;SDS011;70809;52.184;13.422;2023-12-20T00:12:13;5.85;;;3.33;;
81351;SDS011;70809;52.184;13.422;2023-12-20T00:13:14;4.43;;;2.58;;
81351;SDS011;70809;52.184;13.422;2023-12-20T00:14:16;4.63;;;3.13;;
81351;SDS011;70809;52.184;13.422;2023-12-20T00:15:18;6.18;;;3.45;;
81351;SDS011;70809;52.184;13.422;2023-12-20T00:16:19;5.88;;;3.00;;
81351;SDS011;70809;52.184;13.422;2023-12-20T00:17:21;5.38;;;3.08;;
81351;SDS011;70809;52.184;13.422;2023-12-20T00:18:23;6.07;;;3.05;;
81351;SDS011;70809;52.184;13.422;2023-12-20T00:19:25;5.97;;;3.63;;
81351;SDS011;70809;52.184;13.422;2023-12-20T00:20:27;8.93;;;3.75;;
81351;SDS011;70809;52.184;13.422;2023-12-20T00:21:29;6.32;;;3.42;;
81351;SDS011;70809;52.184;13.422;2023-12-20T00:22:31;6.80;;;3.70;;
81351;SDS011;70809;52.184;13.422;2023-12-20T00:23:33;6.88;;;3.95;;
81351;SDS011;70809;52.184;13.422;2023-12-20T00:24:35;8.00;;;3.33;;
81351;SDS011;70809;52.184;13.422;2023-12-20T00:25:38;7.20;;;3.67;;
81351;SDS011;70809;52.184;13.422;2023-12-20T00:26:39;6.72;;;3.80;;
81351;SDS011;70809;52.184;13.422;2023-12-20T00:27:41;5.15;;;3.42;;
81351;SDS011;70809;52.184;13.422;2023-12-20T00:28:43;5.93;;;3.10;;
81351;SDS011;70809;52.184;13.422;2023-12-20T00:29:45;5.78;;;3.40;;
81351;SDS011;70809;52.184;13.422;2023-12-20T00:30:47;5.97;;;3.28;;
81351;SDS011;70809;52.184;13.422;2023-12-20T00:31:52;6.47;;;3.72;;
81351;SDS011;70809;52.184;13.422;2023-12-20T00:32:54;6.00;;;3.88;;
81351;SDS011;70809;52.184;13.422;2023-12-20T00:33:57;5.85;;;3.15;;
81351;SDS011;70809;52.184;13.422;2023-12-20T00:35:00;6.88;;;3.70;;
81351;SDS011;70809;52.184;13.422;2023-12-20T00:36:02;7.10;;;4.28;;
81351;SDS011;70809;52.184;13.422;2023-12-20T00:37:04;7.25;;;4.15;;
81351;SDS011;70809;52.184;13.422;2023-12-20T00:38:06;6.82;;;3.60;;
81351;SDS011;70809;52.184;13.422;2023-12-20T00:39:08;7.53;;;3.72;;
81351;SDS011;70809;52.184;13.422;2023-12-20T00:40:10;8.43;;;4.00;;
81351;SDS011;70809;52.184;13.422;2023-12-20T00:41:13;8.38;;;4.50;;
81351;SDS011;70809;52.184;13.422;2023-12-20T00:42:16;7.15;;;3.75;;
81351;SDS011;70809;52.184;13.422;2023-12-20T00:43:18;6.80;;;3.28;;
81351;SDS011;70809;52.184;13.422;2023-12-20T00:44:19;9.55;;;4.05;;
81351;SDS011;70809;52.184;13.422;2023-12-20T00:45:22;7.10;;;3.85;;
81351;SDS011;70809;52.184;13.422;2023-12-20T00:46:26;8.00;;;4.45;;
81351;SDS011;70809;52.184;13.422;2023-12-20T00:47:28;9.73;;;4.53;;
81351;SDS011;70809;52.184;13.422;2023-12-20T00:48:30;8.35;;;3.90;;
81351;SDS011;70809;52.184;13.422;2023-12-20T00:49:31;9.10;;;4.72;;
81351;SDS011;70809;52.184;13.422;2023-12-20T00:50:34;7.57;;;4.15;;
81351;SDS011;70809;52.184;13.422;2023-12-20T00:51:35;8.70;;;4.40;;
81351;SDS011;70809;52.184;13.422;2023-12-20T00:52:37;8.38;;;4.07;;
81351;SDS011;70809;52.184;13.422;2023-12-20T00:53:39;7.85;;;4.03;;
81351;SDS011;70809;52.184;13.422;2023-12-20T00:54:40;7.30;;;4.43;;
81351;SDS011;70809;52.184;13.422;2023-12-20T00:55:42;8.40;;;4.15;;
81351;SDS011;70809;52.184;13.422;2023-12-20T00:56:45;8.32;;;4.18;;
81351;SDS011;70809;52.184;13.422;2023-12-20T00:57:47;8.85;;;4.78;;
81351;SDS011;70809;52.184;13.422;2023-12-20T00:58:49;8.60;;;4.75;;
81351;SDS011;70809;52.184;13.422;2023-12-20T00:59:51;7.07;;;4.00;;
81351;SDS011;70809;52.184;13.422;2023-12-20T01:00:52;8.85;;;4.43;;
81351;SDS011;70809;52.184;13.422;2023-12-20T01:01:54;10.50;;;4.55;;
81351;SDS011;70809;52.184;13.422;2023-12-20T01:02:56;7.93;;;4.57;;
81351;SDS011;70809;52.184;13.422;2023-12-20T01:03:57;9.98;;;4.90;;
81351;SDS011;70809;52.184;13.422;2023-12-20T01:04:59;10.75;;;5.32;;
81351;SDS011;70809;52.184;13.422;2023-12-20T01:06:01;8.63;;;4.32;;
81351;SDS011;70809;52.184;13.422;2023-12-20T01:07:03;8.27;;;3.97;;
81351;SDS011;70809;52.184;13.422;2023-12-20T01:08:05;10.85;;;5.38;;
81351;SDS011;70809;52.184;13.422;2023-12-20T01:09:07;8.13;;;4.90;;
81351;SDS011;70809;52.184;13.422;2023-12-20T01:10:09;9.07;;;4.28;;
81351;SDS011;70809;52.184;13.422;2023-12-20T01:11:11;9.57;;;5.10;;
81351;SDS011;70809;52.184;13.422;2023-12-20T01:12:14;10.57;;;5.07;;
81351;SDS011;70809;52.184;13.422;2023-12-20T01:13:16;8.77;;;4.90;;
81351;SDS011;70809;52.184;13.422;2023-12-20T01:14:18;8.25;;;4.70;;
81351;SDS011;70809;52.184;13.422;2023-12-20T01:15:20;9.93;;;5.07;;
81351;SDS011;70809;52.184;13.422;2023-12-20T01:16:22;9.57;;;5.82;;
81351;SDS011;70809;52.184;13.422;2023-12-20T01:17:24;11.18;;;4.65;;
81351;SDS011;70809;52.184;13.422;2023-12-20T01:18:26;10.93;;;5.43;;
81351;SDS011;70809;52.184;13.422;2023-12-20T01:19:28;9.73;;;5.30;;
81351;SDS011;70809;52.184;13.422;2023-12-20T01:20:30;8.60;;;5.53;;
81351;SDS011;70809;52.184;13.422;2023-12-20T01:21:32;10.38;;;5.40;;
81351;SDS011;70809;52.184;13.422;2023-12-20T01:22:34;9.77;;;5.50;;
81351;SDS011;70809;52.184;13.422;2023-12-20T01:23:36;10.95;;;5.60;;
81351;SDS011;70809;52.184;13.422;2023-12-20T01:24:37;12.05;;;5.07;;
81351;SDS011;70809;52.184;13.422;2023-12-20T01:25:39;11.60;;;5.50;;
81351;SDS011;70809;52.184;13.422;2023-12-20T01:26:40;11.23;;;5.55;;
81351;SDS011;70809;52.184;13.422;2023-12-20T01:27:43;11.68;;;5.82;;
81351;SDS011;70809;52.184;13.422;2023-12-20T01:28:46;11.98;;;5.85;;
81351;SDS011;70809;52.184;13.422;2023-12-20T01:29:47;13.05;;;5.45;;
81351;SDS011;70809;52.184;13.422;2023-12-20T01:30:49;10.65;;;5.38;;
81351;SDS011;70809;52.184;13.422;2023-12-20T01:31:51;11.10;;;5.55;;
81351;SDS011;70809;52.184;13.422;2023-12-20T01:32:53;12.32;;;5.90;;
81351;SDS011;70809;52.184;13.422;2023-12-20T01:33:54;12.20;;;5.90;;
81351;SDS011;70809;52.184;13.422;2023-12-20T01:34:56;10.15;;;5.30;;
81351;SDS011;70809;52.184;13.422;2023-12-20T01:36:03;13.38;;;6.00;;
81351;SDS011;70809;52.184;13.422;2023-12-20T01:37:05;13.25;;;6.50;;
81351;SDS011;70809;52.184;13.422;2023-12-20T01:38:07;11.23;;;5.70;;
81351;SDS011;70809;52.184;13.422;2023-12-20T01:39:10;10.82;;;6.03;;
81351;SDS011;70809;52.184;13.422;2023-12-20T01:40:25;12.43;;;6.72;;
81351;SDS011;70809;52.184;13.422;2023-12-20T01:41:27;11.70;;;5.40;;
81351;SDS011;70809;52.184;13.422;2023-12-20T01:42:29;10.73;;;6.22;;
81351;SDS011;70809;52.184;13.422;2023-12-20T01:43:32;14.57;;;6.22;;
81351;SDS011;70809;52.184;13.422;2023-12-20T01:44:48;13.35;;;7.20;;
81351;SDS011;70809;52.184;13.422;2023-12-20T01:45:50;12.73;;;6.40;;
81351;SDS011;70809;52.184;13.422;2023-12-20T01:46:52;13.00;;;6.45;;
81351;SDS011;70809;52.184;13.422;2023-12-20T01:47:53;13.85;;;6.65;;
81351;SDS011;70809;52.184;13.422;2023-12-20T01:48:56;14.85;;;6.80;;
81351;SDS011;70809;52.184;13.422;2023-12-20T01:49:58;10.40;;;6.00;;
81351;SDS011;70809;52.184;13.422;2023-12-20T01:51:00;12.00;;;5.97;;
81351;SDS011;70809;52.184;13.422;2023-12-20T01:52:04;14.68;;;7.00;;
81351;SDS011;70809;52.184;13.422;2023-12-20T01:53:06;14.65;;;6.53;;
81351;SDS011;70809;52.184;13.422;2023-12-20T01:55:11;15.43;;;6.57;;
81351;SDS011;70809;52.184;13.422;2023-12-20T01:56:15;12.98;;;5.72;;
81351;SDS011;70809;52.184;13.422;2023-12-20T01:57:17;16.90;;;7.53;;
81351;SDS011;70809;52.184;13.422;2023-12-20T01:58:19;15.00;;;7.65;;
81351;SDS011;70809;52.184;13.422;2023-12-20T01:59:22;15.20;;;6.95;;
81351;SDS011;70809;52.184;13.422;2023-12-20T02:00:24;11.93;;;6.43;;
81351;SDS011;70809;52.184;13.422;2023-12-20T02:01:28;12.13;;;6.32;;
81351;SDS011;70809;52.184;13.422;2023-12-20T02:02:30;14.50;;;6.65;;
81351;SDS011;70809;52.184;13.422;2023-12-20T02:03:32;14.32;;;6.95;;
81351;SDS011;70809;52.184;13.422;2023-12-20T02:04:34;15.48;;;6.82;;
81351;SDS011;70809;52.184;13.422;2023-12-20T02:05:37;13.50;;;6.85;;
81351;SDS011;70809;52.184;13.422;2023-12-20T02:06:40;12.75;;;6.95;;
81351;SDS011;70809;52.184;13.422;2023-12-20T02:07:41;12.85;;;7.22;;
81351;SDS011;70809;52.184;13.422;2023-12-20T02:08:44;12.80;;;6.55;;
81351;SDS011;70809;52.184;13.422;2023-12-20T02:09:45;13.50;;;7.28;;
81351;SDS011;70809;52.184;13.422;2023-12-20T02:10:47;10.93;;;6.07;;
81351;SDS011;70809;52.184;13.422;2023-12-20T02:11:49;11.98;;;6.43;;
81351;SDS011;70809;52.184;13.422;2023-12-20T02:12:51;15.20;;;6.10;;
81351;SDS011;70809;52.184;13.422;2023-12-20T02:13:53;13.13;;;7.45;;
81351;SDS011;70809;52.184;13.422;2023-12-20T02:14:56;11.63;;;5.95;;
81351;SDS011;70809;52.184;13.422;2023-12-20T02:15:58;16.80;;;6.95;;
81351;SDS011;70809;52.184;13.422;2023-12-20T02:16:59;11.43;;;5.57;;
81351;SDS011;70809;52.184;13.422;2023-12-20T02:18:01;15.65;;;7.70;;
81351;SDS011;70809;52.184;13.422;2023-12-20T02:19:03;11.35;;;6.05;;
81351;SDS011;70809;52.184;13.422;2023-12-20T02:20:06;12.73;;;6.25;;
81351;SDS011;70809;52.184;13.422;2023-12-20T02:21:09;12.93;;;6.65;;
81351;SDS011;70809;52.184;13.422;2023-12-20T02:22:12;12.23;;;5.55;;
81351;SDS011;70809;52.184;13.422;2023-12-20T02:23:14;12.85;;;6.07;;
81351;SDS011;70809;52.184;13.422;2023-12-20T02:24:15;9.65;;;5.90;;
81351;SDS011;70809;52.184;13.422;2023-12-20T02:25:17;12.70;;;6.15;;
81351;SDS011;70809;52.184;13.422;2023-12-20T02:26:19;11.13;;;6.30;;
81351;SDS011;70809;52.184;13.422;2023-12-20T02:27:21;14.05;;;6.88;;
81351;SDS011;70809;52.184;13.422;2023-12-20T02:28:24;11.07;;;5.55;;
81351;SDS011;70809;52.184;13.422;2023-12-20T02:29:25;10.55;;;6.13;;
81351;SDS011;70809;52.184;13.422;2023-12-20T02:30:28;12.32;;;6.07;;
81351;SDS011;70809;52.184;13.422;2023-12-20T02:31:29;11.57;;;5.72;;
81351;SDS011;70809;52.184;13.422;2023-12-20T02:32:31;13.52;;;6.35;;
81351;SDS011;70809;52.184;13.422;2023-12-20T02:33:33;10.65;;;5.35;;
81351;SDS011;70809;52.184;13.422;2023-12-20T02:34:34;10.15;;;5.55;;
81351;SDS011;70809;52.184;13.422;2023-12-20T02:35:36;14.95;;;6.47;;
81351;SDS011;70809;52.184;13.422;2023-12-20T02:36:37;9.65;;;4.97;;
81351;SDS011;70809;52.184;13.422;2023-12-20T02:37:41;10.90;;;5.30;;
81351;SDS011;70809;52.184;13.422;2023-12-20T02:38:43;10.00;;;5.10;;
81351;SDS011;70809;52.184;13.422;2023-12-20T02:39:44;11.20;;;5.85;;
81351;SDS011;70809;52.184;13.422;2023-12-20T02:40:46;9.50;;;5.00;;
81351;SDS011;70809;52.184;13.422;2023-12-20T02:41:50;9.98;;;5.40;;
81351;SDS011;70809;52.184;13.422;2023-12-20T02:42:52;9.27;;;5.05;;
81351;SDS011;70809;52.184;13.422;2023-12-20T02:43:53;8.30;;;4.63;;
81351;SDS011;70809;52.184;13.422;2023-12-20T02:44:55;6.65;;;4.20;;
81351;SDS011;70809;52.184;13.422;2023-12-20T02:45:57;8.10;;;4.57;;
81351;SDS011;70809;52.184;13.422;2023-12-20T02:46:59;9.23;;;4.78;;
81351;SDS011;70809;52.184;13.422;2023-12-20T02:48:01;8.77;;;4.93;;
81351;SDS011;70809;52.184;13.422;2023-12-20T02:49:03;9.98;;;4.72;;
81351;SDS011;70809;52.184;13.422;2023-12-20T02:50:05;6.95;;;4.30;;
81351;SDS011;70809;52.184;13.422;2023-12-20T02:51:07;11.88;;;4.75;;
81351;SDS011;70809;52.184;13.422;2023-12-20T02:52:09;10.68;;;5.15;;
81351;SDS011;70809;52.184;13.422;2023-12-20T02:53:12;7.25;;;4.53;;
81351;SDS011;70809;52.184;13.422;2023-12-20T02:54:14;8.25;;;4.40;;
81351;SDS011;70809;52.184;13.422;2023-12-20T02:55:16;9.48;;;4.95;;
81351;SDS011;70809;52.184;13.422;2023-12-20T02:56:17;9.07;;;4.75;;
81351;SDS011;70809;52.184;13.422;2023-12-20T02:57:19;7.22;;;3.92;;
81351;SDS011;70809;52.184;13.422;2023-12-20T02:58:21;10.30;;;4.57;;
81351;SDS011;70809;52.184;13.422;2023-12-20T02:59:22;8.38;;;4.10;;
81351;SDS011;70809;52.184;13.422;2023-12-20T03:00:24;10.63;;;5.13;;
81351;SDS011;70809;52.184;13.422;2023-12-20T03:01:26;8.88;;;4.53;;
81351;SDS011;70809;52.184;13.422;2023-12-20T03:02:28;8.93;;;4.55;;
81351;SDS011;70809;52.184;13.422;2023-12-20T03:03:29;8.57;;;4.65;;
81351;SDS011;70809;52.184;13.422;2023-12-20T03:04:31;7.85;;;4.03;;
81351;SDS011;70809;52.184;13.422;2023-12-20T03:05:33;6.63;;;3.85;;
81351;SDS011;70809;52.184;13.422;2023-12-20T03:06:35;6.85;;;4.00;;
81351;SDS011;70809;52.184;13.422;2023-12-20T03:07:37;6.45;;;3.88;;
81351;SDS011;70809;52.184;13.422;2023-12-20T03:08:41;7.72;;;4.50;;
81351;SDS011;70809;52.184;13.422;2023-12-20T03:09:43;7.13;;;3.95;;
81351;SDS011;70809;52.184;13.422;2023-12-20T03:11:05;6.95;;;4.00;;
81351;SDS011;70809;52.184;13.422;2023-12-20T03:12:07;9.40;;;4.65;;
81351;SDS011;70809;52.184;13.422;2023-12-20T03:13:08;7.82;;;4.05;;
81351;SDS011;70809;52.184;13.422;2023-12-20T03:14:10;7.50;;;4.55;;
81351;SDS011;70809;52.184;13.422;2023-12-20T03:15:12;10.75;;;4.55;;
81351;SDS011;70809;52.184;13.422;2023-12-20T03:16:13;8.45;;;4.43;;
81351;SDS011;70809;52.184;13.422;2023-12-20T03:17:15;6.72;;;3.97;;
81351;SDS011;70809;52.184;13.422;2023-12-20T03:18:16;6.53;;;4.03;;
81351;SDS011;70809;52.184;13.422;2023-12-20T03:19:18;4.88;;;3.35;;
81351;SDS011;70809;52.184;13.422;2023-12-20T03:20:20;6.15;;;3.92;;
81351;SDS011;70809;52.184;13.422;2023-12-20T03:21:22;6.47;;;3.95;;
81351;SDS011;70809;52.184;13.422;2023-12-20T03:22:24;6.65;;;4.15;;
81351;SDS011;70809;52.184;13.422;2023-12-20T03:23:27;5.32;;;2.92;;
81351;SDS011;70809;52.184;13.422;2023-12-20T03:24:30;5.63;;;3.63;;
81351;SDS011;70809;52.184;13.422;2023-12-20T03:25:32;5.38;;;3.75;;
81351;SDS011;70809;52.184;13.422;2023-12-20T03:26:33;6.82;;;3.92;;
81351;SDS011;70809;52.184;13.422;2023-12-20T03:27:36;4.60;;;3.03;;
81351;SDS011;70809;52.184;13.422;2023-12-20T03:28:38;7.43;;;3.92;;
81351;SDS011;70809;52.184;13.422;2023-12-20T03:29:40;5.88;;;3.67;;
81351;SDS011;70809;52.184;13.422;2023-12-20T03:30:42;6.05;;;3.97;;
81351;SDS011;70809;52.184;13.422;2023-12-20T03:31:44;5.88;;;3.53;;
81351;SDS011;70809;52.184;13.422;2023-12-20T03:32:46;7.05;;;4.13;;
81351;SDS011;70809;52.184;13.422;2023-12-20T03:33:48;5.57;;;3.45;;
81351;SDS011;70809;52.184;13.422;2023-12-20T03:34:50;6.20;;;3.85;;
81351;SDS011;70809;52.184;13.422;2023-12-20T03:35:54;7.97;;;3.90;;
81351;SDS011;70809;52.184;13.422;2023-12-20T03:36:55;5.68;;;3.17;;
81351;SDS011;70809;52.184;13.422;2023-12-20T03:37:57;4.85;;;3.17;;
81351;SDS011;70809;52.184;13.422;2023-12-20T03:38:59;5.55;;;3.42;;
81351;SDS011;70809;52.184;13.422;2023-12-20T03:40:02;4.43;;;2.80;;
81351;SDS011;70809;52.184;13.422;2023-12-20T03:41:04;5.03;;;3.15;;
81351;SDS011;70809;52.184;13.422;2023-12-20T03:42:06;4.93;;;3.33;;
81351;SDS011;70809;52.184;13.422;2023-12-20T03:43:08;7.03;;;3.30;;
81351;SDS011;70809;52.184;13.422;2023-12-20T03:44:10;5.43;;;3.25;;
81351;SDS011;70809;52.184;13.422;2023-12-20T03:45:11;4.75;;;2.97;;
81351;SDS011;70809;52.184;13.422;2023-12-20T03:46:13;5.03;;;2.90;;
81351;SDS011;70809;52.184;13.422;2023-12-20T03:47:15;5.60;;;3.50;;
81351;SDS011;70809;52.184;13.422;2023-12-20T03:48:16;5.90;;;2.88;;
81351;SDS011;70809;52.184;13.422;2023-12-20T03:49:18;4.90;;;2.92;;
81351;SDS011;70809;52.184;13.422;2023-12-20T03:50:20;5.57;;;2.60;;
81351;SDS011;70809;52.184;13.422;2023-12-20T03:51:22;4.15;;;2.45;;
81351;SDS011;70809;52.184;13.422;2023-12-20T03:52:23;2.92;;;2.13;;
81351;SDS011;70809;52.184;13.422;2023-12-20T03:53:25;4.30;;;2.45;;
81351;SDS011;70809;52.184;13.422;2023-12-20T03:54:27;7.72;;;2.90;;
81351;SDS011;70809;52.184;13.422;2023-12-20T03:55:30;4.45;;;2.53;;
81351;SDS011;70809;52.184;13.422;2023-12-20T03:56:32;4.95;;;2.65;;
81351;SDS011;70809;52.184;13.422;2023-12-20T03:57:34;3.92;;;2.53;;
81351;SDS011;70809;52.184;13.422;2023-12-20T03:58:36;4.35;;;2.33;;
81351;SDS011;70809;52.184;13.422;2023-12-20T03:59:37;5.15;;;2.50;;
81351;SDS011;70809;52.184;13.422;2023-12-20T04:00:39;4.50;;;2.45;;
81351;SDS011;70809;52.184;13.422;2023-12-20T04:01:42;4.03;;;2.42;;
81351;SDS011;70809;52.184;13.422;2023-12-20T04:02:44;4.78;;;2.75;;
81351;SDS011;70809;52.184;13.422;2023-12-20T04:03:46;4.63;;;2.53;;
81351;SDS011;70809;52.184;13.422;2023-12-20T04:04:47;4.05;;;2.40;;
81351;SDS011;70809;52.184;13.422;2023-12-20T04:05:49;3.88;;;2.33;;
81351;SDS011;70809;52.184;13.422;2023-12-20T04:06:51;3.80;;;2.45;;
81351;SDS011;70809;52.184;13.422;2023-12-20T04:07:52;5.63;;;2.10;;
81351;SDS011;70809;52.184;13.422;2023-12-20T04:08:54;4.47;;;2.67;;
81351;SDS011;70809;52.184;13.422;2023-12-20T04:09:56;4.55;;;2.78;;
81351;SDS011;70809;52.184;13.422;2023-12-20T04:10:59;6.45;;;2.78;;
81351;SDS011;70809;52.184;13.422;2023-12-20T04:12:01;4.72;;;2.50;;
81351;SDS011;70809;52.184;13.422;2023-12-20T04:13:02;4.82;;;2.20;;
81351;SDS011;70809;52.184;13.422;2023-12-20T04:14:05;7.38;;;2.70;;
81351;SDS011;70809;52.184;13.422;2023-12-20T04:15:07;5.43;;;2.00;;
81351;SDS011;70809;52.184;13.422;2023-12-20T04:16:10;4.20;;;2.22;;
81351;SDS011;70809;52.184;13.422;2023-12-20T04:17:13;4.93;;;2.05;;
81351;SDS011;70809;52.184;13.422;2023-12-20T04:18:15;4.13;;;2.38;;
81351;SDS011;70809;52.184;13.422;2023-12-20T04:19:17;3.47;;;2.30;;
81351;SDS011;70809;52.184;13.422;2023-12-20T04:20:19;5.47;;;2.60;;
81351;SDS011;70809;52.184;13.422;2023-12-20T04:21:20;5.78;;;2.50;;
81351;SDS011;70809;52.184;13.422;2023-12-20T04:22:22;4.47;;;2.28;;
81351;SDS011;70809;52.184;13.422;2023-12-20T04:23:24;3.80;;;2.40;;
81351;SDS011;70809;52.184;13.422;2023-12-20T04:24:25;6.93;;;2.70;;
81351;SDS011;70809;52.184;13.422;2023-12-20T04:25:27;7.78;;;2.83;;
81351;SDS011;70809;52.184;13.422;2023-12-20T04:26:30;4.88;;;2.80;;
81351;SDS011;70809;52.184;13.422;2023-12-20T04:27:31;4.78;;;2.88;;
81351;SDS011;70809;52.184;13.422;2023-12-20T04:28:33;4.78;;;2.78;;
81351;SDS011;70809;52.184;13.422;2023-12-20T04:29:35;5.60;;;3.10;;
81351;SDS011;70809;52.184;13.422;2023-12-20T04:30:36;4.80;;;3.10;;
81351;SDS011;70809;52.184;13.422;2023-12-20T04:31:38;6.40;;;3.45;;
81351;SDS011;70809;52.184;13.422;2023-12-20T04:32:40;5.18;;;3.15;;
81351;SDS011;70809;52.184;13.422;2023-12-20T04:33:42;4.85;;;3.33;;
81351;SDS011;70809;52.184;13.422;2023-12-20T04:34:43;4.80;;;3.08;;
81351;SDS011;70809;52.184;13.422;2023-12-20T04:35:45;7.20;;;3.60;;
81351;SDS011;70809;52.184;13.422;2023-12-20T04:36:47;9.20;;;3.80;;
81351;SDS011;70809;52.184;13.422;2023-12-20T04:37:49;7.50;;;3.50;;
81351;SDS011;70809;52.184;13.422;2023-12-20T04:38:51;7.60;;;3.80;;
81351;SDS011;70809;52.184;13.422;2023-12-20T04:39:53;6.32;;;3.88;;
81351;SDS011;70809;52.184;13.422;2023-12-20T04:40:55;7.07;;;3.75;;
81351;SDS011;70809;52.184;13.422;2023-12-20T04:41:58;6.80;;;2.90;;
81351;SDS011;70809;52.184;13.422;2023-12-20T04:43:00;4.82;;;3.38;;
81351;SDS011;70809;52.184;13.422;2023-12-20T04:44:02;5.15;;;3.33;;
81351;SDS011;70809;52.184;13.422;2023-12-20T04:45:04;6.75;;;3.28;;
81351;SDS011;70809;52.184;13.422;2023-12-20T04:46:07;7.10;;;3.97;;
81351;SDS011;70809;52.184;13.422;2023-12-20T04:47:08;6.68;;;3.90;;
81351;SDS011;70809;52.184;13.422;2023-12-20T04:48:11;7.10;;;3.97;;
81351;SDS011;70809;52.184;13.422;2023-12-20T04:49:16;7.10;;;4.13;;
81351;SDS011;70809;52.184;13.422;2023-12-20T04:50:21;6.22;;;3.50;;
81351;SDS011;70809;52.184;13.422;2023-12-20T04:51:23;5.55;;;3.88;;
81351;SDS011;70809;52.184;13.422;2023-12-20T04:52:25;5.65;;;3.55;;
81351;SDS011;70809;52.184;13.422;2023-12-20T04:53:26;6.55;;;4.38;;
81351;SDS011;70809;52.184;13.422;2023-12-20T04:54:28;8.07;;;4.07;;
81351;SDS011;70809;52.184;13.422;2023-12-20T04:55:30;7.45;;;4.47;;
81351;SDS011;70809;52.184;13.422;2023-12-20T04:56:32;6.15;;;3.78;;
81351;SDS011;70809;52.184;13.422;2023-12-20T04:57:35;7.57;;;4.80;;
81351;SDS011;70809;52.184;13.422;2023-12-20T04:58:37;6.63;;;4.20;;
81351;SDS011;70809;52.184;13.422;2023-12-20T04:59:39;9.45;;;4.40;;
81351;SDS011;70809;52.184;13.422;2023-12-20T05:00:41;8.55;;;4.97;;
81351;SDS011;70809;52.184;13.422;2023-12-20T05:01:43;7.82;;;4.80;;
81351;SDS011;70809;52.184;13.422;2023-12-20T05:02:44;10.48;;;4.90;;
81351;SDS011;70809;52.184;13.422;2023-12-20T05:03:46;8.80;;;5.07;;
81351;SDS011;70809;52.184;13.422;2023-12-20T05:04:48;9.23;;;5.20;;
81351;SDS011;70809;52.184;13.422;2023-12-20T05:05:50;8.48;;;4.82;;
81351;SDS011;70809;52.184;13.422;2023-12-20T05:06:51;9.10;;;4.78;;
81351;SDS011;70809;52.184;13.422;2023-12-20T05:07:53;9.65;;;5.13;;
81351;SDS011;70809;52.184;13.422;2023-12-20T05:08:55;7.47;;;4.60;;
81351;SDS011;70809;52.184;13.422;2023-12-20T05:09:57;9.05;;;5.32;;
81351;SDS011;70809;52.184;13.422;2023-12-20T05:10:59;8.82;;;5.03;;
81351;SDS011;70809;52.184;13.422;2023-12-20T05:12:01;10.70;;;5.60;;
81351;SDS011;70809;52.184;13.422;2023-12-20T05:13:04;9.20;;;5.88;;
81351;SDS011;70809;52.184;13.422;2023-12-20T05:14:06;10.77;;;6.28;;
81351;SDS011;70809;52.184;13.422;2023-12-20T05:15:08;9.43;;;5.20;;
81351;SDS011;70809;52.184;13.422;2023-12-20T05:16:10;7.90;;;5.22;;
81351;SDS011;70809;52.184;13.422;2023-12-20T05:17:12;7.80;;;5.75;;
81351;SDS011;70809;52.184;13.422;2023-12-20T05:18:14;8.82;;;5.35;;
81351;SDS011;70809;52.184;13.422;2023-12-20T05:19:15;10.00;;;5.30;;
81351;SDS011;70809;52.184;13.422;2023-12-20T05:20:18;7.30;;;4.30;;
81351;SDS011;70809;52.184;13.422;2023-12-20T05:21:19;9.85;;;5.50;;
81351;SDS011;70809;52.184;13.422;2023-12-20T05:22:21;9.07;;;4.88;;
81351;SDS011;70809;52.184;13.422;2023-12-20T05:23:23;7.65;;;4.55;;
81351;SDS011;70809;52.184;13.422;2023-12-20T05:24:24;10.88;;;5.40;;
81351;SDS011;70809;52.184;13.422;2023-12-20T05:25:26;12.82;;;5.15;;
81351;SDS011;70809;52.184;13.422;2023-12-20T05:26:28;9.07;;;4.80;;
81351;SDS011;70809;52.184;13.422;2023-12-20T05:27:29;7.03;;;4.85;;
81351;SDS011;70809;52.184;13.422;2023-12-20T05:28:33;10.38;;;4.82;;
81351;SDS011;70809;52.184;13.422;2023-12-20T05:29:35;8.02;;;4.15;;
81351;SDS011;70809;52.184;13.422;2023-12-20T05:30:37;10.25;;;4.65;;
81351;SDS011;70809;52.184;13.422;2023-12-20T05:31:40;9.07;;;5.50;;
81351;SDS011;70809;52.184;13.422;2023-12-20T05:32:42;8.27;;;4.28;;
81351;SDS011;70809;52.184;13.422;2023-12-20T05:33:43;5.82;;;3.95;;
81351;SDS011;70809;52.184;13.422;2023-12-20T05:34:45;8.57;;;4.88;;
81351;SDS011;70809;52.184;13.422;2023-12-20T05:35:47;5.45;;;3.55;;
81351;SDS011;70809;52.184;13.422;2023-12-20T05:36:49;6.07;;;3.45;;
81351;SDS011;70809;52.184;13.422;2023-12-20T05:37:51;6.35;;;4.38;;
81351;SDS011;70809;52.184;13.422;2023-12-20T05:38:52;6.00;;;3.50;;
81351;SDS011;70809;52.184;13.422;2023-12-20T05:39:54;6.03;;;3.42;;
81351;SDS011;70809;52.184;13.422;2023-12-20T05:40:55;6.85;;;3.38;;
81351;SDS011;70809;52.184;13.422;2023-12-20T05:41:57;9.98;;;3.83;;
81351;SDS011;70809;52.184;13.422;2023-12-20T05:42:59;5.75;;;3.42;;
81351;SDS011;70809;52.184;13.422;2023-12-20T05:44:02;10.13;;;4.38;;
81351;SDS011;70809;52.184;13.422;2023-12-20T05:45:04;9.43;;;4.38;;
81351;SDS011;70809;52.184;13.422;2023-12-20T05:46:06;9.32;;;4.38;;
81351;SDS011;70809;52.184;13.422;2023-12-20T05:47:08;6.30;;;3.80;;
81351;SDS011;70809;52.184;13.422;2023-12-20T05:48:10;9.98;;;4.85;;
81351;SDS011;70809;52.184;13.422;2023-12-20T05:49:12;7.40;;;3.03;;
81351;SDS011;70809;52.184;13.422;2023-12-20T05:50:14;10.05;;;3.50;;
81351;SDS011;70809;52.184;13.422;2023-12-20T05:51:16;6.65;;;3.25;;
81351;SDS011;70809;52.184;13.422;2023-12-20T05:52:17;8.65;;;3.67;;
81351;SDS011;70809;52.184;13.422;2023-12-20T05:53:19;8.85;;;4.22;;
81351;SDS011;70809;52.184;13.422;2023-12-20T05:54:21;6.13;;;3.60;;
81351;SDS011;70809;52.184;13.422;2023-12-20T05:55:26;7.75;;;3.58;;
81351;SDS011;70809;52.184;13.422;2023-12-20T05:56:28;8.30;;;3.70;;
81351;SDS011;70809;52.184;13.422;2023-12-20T05:57:33;6.63;;;3.95;;
81351;SDS011;70809;52.184;13.422;2023-12-20T05:58:36;6.95;;;3.45;;
81351;SDS011;70809;52.184;13.422;2023-12-20T05:59:40;8.65;;;3.38;;
81351;SDS011;70809;52.184;13.422;2023-12-20T06:00:42;6.72;;;2.95;;
81351;SDS011;70809;52.184;13.422;2023-12-20T06:01:44;6.13;;;3.60;;
81351;SDS011;70809;52.184;13.422;2023-12-20T06:02:46;7.35;;;4.35;;
81351;SDS011;70809;52.184;13.422;2023-12-20T06:03:48;9.30;;;4.05;;
81351;SDS011;70809;52.184;13.422;2023-12-20T06:04:49;8.85;;;4.03;;
81351;SDS011;70809;52.184;13.422;2023-12-20T06:05:52;9.02;;;3.80;;
81351;SDS011;70809;52.184;13.422;2023-12-20T06:07:03;10.95;;;3.83;;
81351;SDS011;70809;52.184;13.422;2023-12-20T06:08:05;7.47;;;3.97;;
81351;SDS011;70809;52.184;13.422;2023-12-20T06:09:07;7.20;;;3.88;;